D/T METAR WX W/DIR W/SPE G/SPE TEMP DEWP
22/01/20 07:11 EGVA 220711Z AUTO 00000KT 1000 R27/1000V1200 BR VV000 04/04 A3062 RMK AO2 SLP377 $ BR N (0°) 4°C 4°C
22/01/20 06:45 EGVA 220645Z AUTO 18003KT 0800 R27/0800V0900 FG VV001 04/04 A3062 RMK AO2 SLP377 $ FG S (180°) 3.5mph 4°C 4°C
22/01/20 06:09 EGVA 220609Z AUTO 00000KT 0600 R27/0650V0750 FG VV000 04/04 A3062 RMK AO2 SLP377 $ FG N (0°) 4°C 4°C
22/01/20 05:46 EGVA 220546Z AUTO 00000KT 0600 R27/0800 FG VV000 04/04 A3062 RMK AO2 SLP377 $ FG N (0°) 4°C 4°C
22/01/20 05:16 EGVA 220516Z AUTO 27003KT 1000 R27/1100V1300 BR VV002 04/04 A3062 RMK AO2 CIG 001 RWY09 SLP377 $ BR W (270°) 3.5mph 4°C 4°C
22/01/20 04:48 EGVA 220448Z AUTO 24003KT 1600 R27/P1500 BR OVC003 04/04 A3063 RMK AO2 VIS 0600 RWY09 CIG 002 RWY09 SLP380 $ BR WSW (240°) 3.5mph 4°C 4°C
22/01/20 04:16 EGVA 220416Z AUTO 00000KT 1400 R27/1500VP1500 BR VV003 04/04 A3064 RMK AO2 CIG 002 RWY09 SLP383 $ BR N (0°) 4°C 4°C
22/01/20 03:47 EGVA 220347Z AUTO 00000KT 3200 BR OVC003 04/04 A3065 RMK AO2 VIS 2200V3200 VIS 1200 RWY09 SLP386 $ BR N (0°) 4°C 4°C
22/01/20 03:16 EGVA 220316Z AUTO 26003KT 4000 BR OVC003 04/04 A3064 RMK AO2 VIS 4000V9999 VIS 1000 RWY09 CIG 003V005 SLP383 $ BR W (260°) 3.5mph 4°C 4°C
22/01/20 02:51 EGVA 220251Z AUTO 26004KT 9999 OVC005 04/04 A3065 RMK AO2 VIS 2000 RWY09 SLP386 $ W (260°) 4.6mph 4°C 4°C
22/01/20 02:21 EGVA 220221Z AUTO 26004KT 9999 OVC004 03/03 A3066 RMK AO2 VIS 2200 RWY09 CIG 004V006 SLP389 $ W (260°) 4.6mph 3°C 3°C
22/01/20 01:21 EGVA 220121Z AUTO 28003KT 6000 BR OVC007 03/03 A3067 RMK AO2 VIS 1600 RWY09 CIG 004 RWY09 SLP393 $ BR W (280°) 3.5mph 3°C 3°C
22/01/20 00:51 EGVA 220051Z AUTO 28003KT 9999 OVC007 03/03 A3068 RMK AO2 VIS 2200 RWY09 CIG 005 RWY09 SLP397 $ W (280°) 3.5mph 3°C 3°C
22/01/20 00:21 EGVA 220021Z AUTO 00000KT 9999 OVC007 02/02 A3069 RMK AO2 SLP400 $ N (0°) 2°C 2°C
21/01/20 23:47 EGVA 212347Z AUTO 22003KT 9999 BKN005 OVC010 02/02 A3070 RMK AO2 CIG 005V010 BKN V SCT SLP404 $ SW (220°) 3.5mph 2°C 2°C
21/01/20 22:56 EGVA 212256Z AUTO 27003KT 9999 OVC013 02/02 A3070 RMK AO2 SLP404 T00170016 $ W (270°) 3.5mph 1.7°C 1.6°C
21/01/20 22:21 EGVA 212221Z AUTO 26003KT 9999 OVC015 02/01 A3069 RMK AO2 CIG 010V015 SLP401 $ W (260°) 3.5mph 2°C 1°C
21/01/20 22:06 EGVA 212206Z AUTO 00000KT 9999 BKN011 OVC015 02/02 A3069 RMK AO2 CIG 011V015 SLP401 $ N (0°) 2°C 2°C
21/01/20 21:41 EGVA 212141Z AUTO 27004KT 9999 OVC014 01/01 A3069 RMK AO2 SLP402 $ W (270°) 4.6mph 1°C 1°C
21/01/20 20:56 EGVA 212056Z AUTO 27003KT 9999 OVC019 01/01 A3069 RMK AO2 SLP402 T00100009 58003 $ W (270°) 3.5mph 1°C 0.9°C
21/01/20 20:41 EGVA 212041Z AUTO 24004KT 9999 OVC019 01/01 A3069 RMK AO2 SLP402 $ WSW (240°) 4.6mph 1°C 1°C
21/01/20 20:01 EGVA 212001Z AUTO 00000KT 9999 BKN022 00/00 A3070 RMK AO2 BKN V FEW SLP406 $ N (0°) 0°C 0°C
21/01/20 19:26 EGVA 211926Z AUTO 25004KT 9999 SCT023 00/00 A3071 RMK AO2 SLP409 $ WSW (250°) 4.6mph 0°C 0°C
21/01/20 19:01 EGVA 211901Z AUTO 26004KT 9999 BKN023 00/00 A3071 RMK AO2 BKN V FEW SLP409 $ W (260°) 4.6mph 0°C 0°C
21/01/20 17:56 EGVA 211756Z AUTO 00000KT 9999 CLR 01/00 A3070 RMK AO2 SLP405 T00070003 10066 20005 57007 $ N (0°) 0.7°C 0.3°C
21/01/20 16:56 EGVA 211656Z AUTO 00000KT 9999 CLR 03/02 A3071 RMK AO2 SLP408 T00270015 $ N (0°) 2.7°C 1.5°C
21/01/20 15:56 EGVA 211556Z AUTO 30003KT 9999 CLR 06/03 A3071 RMK AO2 SLP408 T00560033 $ WNW (300°) 3.5mph 5.6°C 3.3°C
21/01/20 14:56 EGVA 211456Z AUTO 00000KT 9999 CLR 06/05 A3072 RMK AO2 SLP411 T00570051 57013 $ N (0°) 5.7°C 5.1°C
21/01/20 13:56 EGVA 211356Z AUTO 25003KT 9999 CLR 07/07 A3073 RMK AO2 SLP414 T00650065 $ WSW (250°) 3.5mph 6.5°C 6.5°C
21/01/20 12:56 EGVA 211256Z AUTO 21004KT 9999 CLR 05/05 A3074 RMK AO2 SLP418 T00540054 $ SSW (210°) 4.6mph 5.4°C 5.4°C
21/01/20 11:56 EGVA 211156Z AUTO 22003KT 9999 CLR 04/04 A3076 RMK AO2 SLP425 60000 T00430043 10043 21042 58010 $ SW (220°) 3.5mph 4.3°C 4.3°C
21/01/20 10:56 EGVA 211056Z AUTO 28003KT 9999 CLR 01/01 A3078 RMK AO2 SLP432 T00130013 $ W (280°) 3.5mph 1.3°C 1.3°C
21/01/20 10:01 EGVA 211001Z AUTO 00000KT 9999 SCT024 M01/M01 A3079 RMK AO2 SLP436 $ N (0°) -1°C -1°C
21/01/20 08:56 EGVA 210856Z AUTO 00000KT 9999 OVC021 M02/M02 A3079 RMK AO2 FZDZE0756 SLP436 60000 T10181019 52005 $ N (0°) -1.8°C -1.9°C
21/01/20 07:57 EGVA 210757Z AUTO 00000KT 9999 OVC022 M03/M03 A3078 RMK AO2 VIS 1200 RWY09 FZDZE56 SLP433 $ N (0°) -3°C -3°C
21/01/20 07:48 EGVA 210748Z AUTO 27003KT 9999 -FZDZ OVC022 M04/M04 A3078 RMK AO2 VIS 1000 RWY09 FZDZB01E18FZDZB48 OVC V BKN SLP433 $ -FZDZ W (270°) 3.5mph -4°C -4°C
21/01/20 07:18 EGVA 210718Z AUTO 28003KT 0600 R27/0550V1000 FZFG BKN000 M04/M04 A3078 RMK AO2 FZDZB01E18 SLP433 $ FZFG W (280°) 3.5mph -4°C -4°C
21/01/20 06:47 EGVA 210647Z AUTO 00000KT 0400 R27/0450V0550 FZFG BKN000 M04/M04 A3078 RMK AO2 BKN V FEW SLP433 $ FZFG N (0°) -4°C -4°C
21/01/20 06:16 EGVA 210616Z AUTO 00000KT 0600 R27/0650V1000 FZFG CLR M04/M04 A3077 RMK AO2 SLP429 $ FZFG N (0°) -4°C -4°C
21/01/20 05:45 EGVA 210545Z AUTO 28004KT 0600 R27/0650V0800 FZFG FEW000 M03/M04 A3077 RMK AO2 SLP429 $ FZFG W (280°) 4.6mph -3°C -4°C
21/01/20 05:19 EGVA 210519Z AUTO 22003KT 1200 R27/0900VP1500 BR CLR M04/M05 A3078 RMK AO2 VIS 1200V6000 SLP433 $ BR SW (220°) 3.5mph -4°C -5°C
21/01/20 04:51 EGVA 210451Z AUTO 27003KT 1200 R27/1000VP1500 BR CLR M03/M03 A3078 RMK AO2 SLP432 $ BR W (270°) 3.5mph -3°C -3°C
21/01/20 04:08 EGVA 210408Z AUTO 23003KT 1800 BR CLR M04/M04 A3079 RMK AO2 VIS 1600V2400 VIS 1000 RWY09 SLP436 $ BR SW (230°) 3.5mph -4°C -4°C
21/01/20 03:38 EGVA 210338Z AUTO 29004KT 9000 BR FEW000 M02/M02 A3078 RMK AO2 VIS 0800 RWY09 SLP431 $ BR WNW (290°) 4.6mph -2°C -2°C
21/01/20 03:21 EGVA 210321Z AUTO 29003KT 0600 R27/0650V0900 FZFG FEW000 M03/M03 A3078 RMK AO2 SLP431 $ FZFG WNW (290°) 3.5mph -3°C -3°C
21/01/20 02:29 EGVA 210229Z AUTO 00000KT 0800 R27/0800V1100 FZFG FEW000 M03/M03 A3079 RMK AO2 SLP435 $ FZFG N (0°) -3°C -3°C
21/01/20 02:19 EGVA 210219Z AUTO 00000KT 0600 R27/0550V0900 FZFG SCT000 M03/M03 A3080 RMK AO2 SLP438 $ FZFG N (0°) -3°C -3°C
21/01/20 01:37 EGVA 210137Z AUTO 21004KT 1000 R27/1100V1300 BR CLR M03/M03 A3080 RMK AO2 SLP438 $ BR SSW (210°) 4.6mph -3°C -3°C